Time;durP1;ratioP1;P1;durP2;ratioP2;P2;SDS_P1;SDS_P2;PMS_P1;PMS_P2;Temp;Humidity;BMP_temperature;BMP_pressure;BME280_temperature;BME280_humidity;BME280_pressure;Samples;Min_cycle;Max_cycle;Signal;HPM_P1;HPM_P2
2023/10/24 00:01:06;;;;;;;8.40;3.70;;;;;;;;;;10340464;28;20422;-68
2023/10/24 00:06:08;;;;;;;;;;;;;;;;;;10335987;28;20042;-69
2023/10/24 00:11:10;;;;;;;7.82;4.45;;;;;;;;;;10341056;28;20457;-69
2023/10/24 00:16:14;;;;;;;8.52;4.50;;;;;;;;;;10343301;28;20395;-69
2023/10/24 00:21:17;;;;;;;;;;;;;;;;;;10335707;28;20053;-69
2023/10/24 00:26:19;;;;;;;8.68;4.65;;;;;;;;;;10333195;28;19929;-69
2023/10/24 00:31:23;;;;;;;9.00;4.63;;;;;;;;;;10338259;28;20034;-69
2023/10/24 00:36:26;;;;;;;;;;;;;;;;;;10338013;28;20415;-68
2023/10/24 00:41:28;;;;;;;10.07;4.43;;;;;;;;;;10332727;28;19936;-68
2023/10/24 00:46:32;;;;;;;9.77;4.82;;;;;;;;;;10338474;28;20048;-71
2023/10/24 00:51:35;;;;;;;;;;;;;;;;;;10349824;28;20122;-69
2023/10/24 00:56:38;;;;;;;7.95;4.13;;;;;;;;;;10350542;28;20291;-69
2023/10/24 01:01:42;;;;;;;6.88;3.55;;;;;;;;;;10339101;28;20046;-69
2023/10/24 01:06:44;;;;;;;9.90;5.20;;;;;;;;;;10344608;28;20475;-69
2023/10/24 01:11:49;;;;;;;8.68;5.00;;;;;;;;;;10349094;28;20507;-69
2023/10/24 01:16:52;;;;;;;10.98;4.70;;;;;;;;;;10349498;28;20040;-68
2023/10/24 01:21:56;;;;;;;10.38;4.72;;;;;;;;;;10343321;28;20324;-70
2023/10/24 01:26:59;;;;;;;9.73;4.68;;;;;;;;;;10343518;28;20049;-70
2023/10/24 01:32:02;;;;;;;11.15;5.57;;;;;;;;;;10345950;28;20038;-70
2023/10/24 01:37:06;;;;;;;11.13;5.25;;;;;;;;;;10342940;28;20078;-70
2023/10/24 01:42:08;;;;;;;10.27;5.18;;;;;;;;;;10348971;28;20104;-69
2023/10/24 01:47:11;;;;;;;11.45;5.47;;;;;;;;;;10344954;28;20048;-70
2023/10/24 01:52:15;;;;;;;10.00;5.40;;;;;;;;;;10341812;28;20050;-69
2023/10/24 01:57:17;;;;;;;13.75;5.53;;;;;;;;;;10344912;28;20096;-68
2023/10/24 02:02:20;;;;;;;11.45;5.93;;;;;;;;;;10342436;28;20037;-67
2023/10/24 02:07:27;;;;;;;12.65;6.15;;;;;;;;;;10345345;28;20046;-69
2023/10/24 02:12:30;;;;;;;15.27;6.75;;;;;;;;;;10345205;28;20073;-69
2023/10/24 02:17:32;;;;;;;12.65;6.38;;;;;;;;;;10341813;28;20137;-68
2023/10/24 02:22:36;;;;;;;13.52;6.43;;;;;;;;;;10336762;28;20048;-69
2023/10/24 02:27:39;;;;;;;11.20;5.40;;;;;;;;;;10335027;28;20046;-70
2023/10/24 02:32:41;;;;;;;11.20;4.90;;;;;;;;;;10337077;28;20052;-69
2023/10/24 02:37:45;;;;;;;9.82;5.65;;;;;;;;;;10339405;28;20446;-69
2023/10/24 02:42:48;;;;;;;12.40;6.10;;;;;;;;;;10339323;28;20336;-68
2023/10/24 02:47:50;;;;;;;11.77;5.65;;;;;;;;;;10335871;28;20053;-69
2023/10/24 02:52:55;;;;;;;10.93;5.53;;;;;;;;;;10340312;28;20419;-69
2023/10/24 02:57:57;;;;;;;13.80;6.20;;;;;;;;;;10347882;28;20046;-69
2023/10/24 03:03:00;;;;;;;13.02;6.22;;;;;;;;;;10336184;28;20479;-72
2023/10/24 03:08:04;;;;;;;12.98;6.30;;;;;;;;;;10342074;28;20045;-69
2023/10/24 03:13:07;;;;;;;10.15;5.15;;;;;;;;;;10343137;28;20038;-69
2023/10/24 03:18:09;;;;;;;11.85;5.57;;;;;;;;;;10338848;28;20038;-70
2023/10/24 03:23:13;;;;;;;11.40;6.05;;;;;;;;;;10341342;28;22033;-68
2023/10/24 03:28:16;;;;;;;11.60;6.13;;;;;;;;;;10336530;28;20050;-69
2023/10/24 03:33:18;;;;;;;10.13;5.70;;;;;;;;;;10337015;28;20537;-69
2023/10/24 03:38:22;;;;;;;11.07;5.85;;;;;;;;;;10334428;28;20140;-68
2023/10/24 03:43:25;;;;;;;12.70;6.68;;;;;;;;;;10338932;28;20049;-69
2023/10/24 03:48:27;;;;;;;11.15;6.35;;;;;;;;;;10342977;28;20042;-69
2023/10/24 03:53:31;;;;;;;11.25;5.65;;;;;;;;;;10337295;28;20046;-69
2023/10/24 03:58:34;;;;;;;12.95;6.32;;;;;;;;;;10337662;28;20057;-69
2023/10/24 04:03:36;;;;;;;10.93;5.43;;;;;;;;;;10335359;28;20049;-68
2023/10/24 04:08:40;;;;;;;11.65;5.88;;;;;;;;;;10341042;28;20471;-68
2023/10/24 04:13:43;;;;;;;12.82;6.22;;;;;;;;;;10334717;28;20056;-69
2023/10/24 04:18:45;;;;;;;11.73;4.45;;;;;;;;;;10341560;28;20051;-69
2023/10/24 04:23:49;;;;;;;5.70;3.63;;;;;;;;;;10341758;28;20061;-68
2023/10/24 04:28:52;;;;;;;;;;;;;;;;;;10345881;28;20629;-69
2023/10/24 04:33:55;;;;;;;6.13;3.53;;;;;;;;;;10344450;28;19940;-68
2023/10/24 04:38:59;;;;;;;6.63;4.03;;;;;;;;;;10350105;28;20061;-68
2023/10/24 04:44:01;;;;;;;11.40;4.65;;;;;;;;;;10347668;28;20052;-69
2023/10/24 04:49:04;;;;;;;9.55;4.22;;;;;;;;;;10347521;28;20049;-67
2023/10/24 04:54:08;;;;;;;9.40;4.18;;;;;;;;;;10349909;28;20053;-70
2023/10/24 04:59:10;;;;;;;8.38;4.10;;;;;;;;;;10340865;28;20042;-68
2023/10/24 05:04:13;;;;;;;8.18;4.75;;;;;;;;;;10341560;28;20053;-68
2023/10/24 05:09:17;;;;;;;9.02;4.43;;;;;;;;;;10338433;28;20104;-69
2023/10/24 05:14:20;;;;;;;8.25;4.22;;;;;;;;;;10351446;28;20487;-73
2023/10/24 05:19:22;;;;;;;10.93;4.90;;;;;;;;;;10352416;28;20056;-69
2023/10/24 05:24:26;;;;;;;11.00;4.57;;;;;;;;;;10347224;28;20050;-70
2023/10/24 05:29:28;;;;;;;9.27;4.90;;;;;;;;;;10342169;28;20042;-69
2023/10/24 05:34:31;;;;;;;10.82;6.13;;;;;;;;;;10346545;28;20042;-69
2023/10/24 05:39:35;;;;;;;10.73;4.80;;;;;;;;;;10349256;28;20052;-69
2023/10/24 05:44:38;;;;;;;9.98;4.60;;;;;;;;;;10347357;28;20470;-71
2023/10/24 05:49:42;;;;;;;9.43;4.82;;;;;;;;;;10350630;28;20042;-71
2023/10/24 05:54:45;;;;;;;8.77;4.43;;;;;;;;;;10340821;28;20054;-69
2023/10/24 05:59:48;;;;;;;10.23;4.35;;;;;;;;;;10347139;28;20323;-70
2023/10/24 06:04:51;;;;;;;9.10;4.47;;;;;;;;;;10345564;28;20040;-68
2023/10/24 06:09:54;;;;;;;10.65;4.75;;;;;;;;;;10348078;28;20074;-68
2023/10/24 06:14:57;;;;;;;;;;;;;;;;;;10349134;28;20560;-69
2023/10/24 06:19:59;;;;;;;8.02;4.80;;;;;;;;;;10347978;28;19921;-69
2023/10/24 06:25:04;;;;;;;9.50;4.63;;;;;;;;;;10344811;28;20462;-71
2023/10/24 06:30:07;;;;;;;10.23;5.22;;;;;;;;;;10344811;28;20034;-69
2023/10/24 06:35:10;;;;;;;12.43;5.27;;;;;;;;;;10341515;28;20110;-70
2023/10/24 06:40:14;;;;;;;14.48;5.30;;;;;;;;;;10339436;28;20050;-70
2023/10/24 06:45:17;;;;;;;9.15;4.85;;;;;;;;;;10341420;28;20129;-70
2023/10/24 06:50:19;;;;;;;10.10;5.50;;;;;;;;;;10349027;28;20041;-70
2023/10/24 06:55:23;;;;;;;12.93;5.03;;;;;;;;;;10343823;28;20046;-69
2023/10/24 07:00:26;;;;;;;9.20;4.82;;;;;;;;;;10340489;28;20046;-70
2023/10/24 07:05:29;;;;;;;10.32;4.90;;;;;;;;;;10343709;28;20113;-71
2023/10/24 07:10:33;;;;;;;9.18;4.85;;;;;;;;;;10341464;28;20052;-70
2023/10/24 07:15:36;;;;;;;12.55;4.97;;;;;;;;;;10348623;28;20517;-69
2023/10/24 07:20:39;;;;;;;10.23;5.00;;;;;;;;;;10329412;28;20148;-68
2023/10/24 07:25:46;;;;;;;8.88;5.22;;;;;;;;;;10350364;28;20675;-73
2023/10/24 07:30:51;;;;;;;10.75;5.18;;;;;;;;;;10341950;28;20057;-69
2023/10/24 07:35:53;;;;;;;11.80;6.05;;;;;;;;;;10344360;28;20103;-71
2023/10/24 07:40:57;;;;;;;10.00;5.78;;;;;;;;;;10338144;28;20044;-69
2023/10/24 07:46:00;;;;;;;;;;;;;;;;;;10331820;28;20045;-69
2023/10/24 07:51:03;;;;;;;15.27;6.65;;;;;;;;;;10334841;28;19921;-69
2023/10/24 07:56:10;;;;;;;14.02;6.20;;;;;;;;;;10348852;28;20034;-69
2023/10/24 08:01:13;;;;;;;17.27;7.40;;;;;;;;;;10348197;28;20268;-74
2023/10/24 08:06:16;;;;;;;14.45;7.60;;;;;;;;;;10348799;28;20561;-71
2023/10/24 08:11:20;;;;;;;13.70;6.90;;;;;;;;;;10344868;28;20141;-70
2023/10/24 08:16:23;;;;;;;13.80;6.47;;;;;;;;;;10346430;28;20034;-68
2023/10/24 08:21:25;;;;;;;16.20;7.28;;;;;;;;;;10341884;28;20050;-68
2023/10/24 08:26:29;;;;;;;12.40;7.10;;;;;;;;;;10361008;28;20592;-69
2023/10/24 08:31:32;;;;;;;;;;;;;;;;;;10350354;28;20042;-69
2023/10/24 08:36:44;;;;;;;12.75;7.15;;;;;;;;;;10363116;28;19929;-69
2023/10/24 08:41:53;;;;;;;15.95;7.57;;;;;;;;;;10357070;28;20533;-69
2023/10/24 08:46:55;;;;;;;13.52;7.35;;;;;;;;;;10358769;28;20503;-70
2023/10/24 08:51:59;;;;;;;16.48;7.13;;;;;;;;;;10358770;28;20470;-67
2023/10/24 08:57:11;;;;;;;14.23;6.72;;;;;;;;;;10359826;28;20034;-68
2023/10/24 09:02:14;;;;;;;16.02;7.47;;;;;;;;;;10356812;28;20107;-69
2023/10/24 09:07:17;;;;;;;16.40;7.95;;;;;;;;;;10356655;28;20057;-70
2023/10/24 09:12:21;;;;;;;10.38;6.15;;;;;;;;;;10358865;28;20128;-70
2023/10/24 09:17:24;;;;;;;14.23;6.40;;;;;;;;;;10355187;28;20104;-69
2023/10/24 09:22:28;;;;;;;15.60;6.22;;;;;;;;;;10352785;28;20049;-68
2023/10/24 09:27:32;;;;;;;13.40;5.82;;;;;;;;;;10356833;28;20105;-68
2023/10/24 09:32:34;;;;;;;;;;;;;;;;;;10351621;28;20042;-68
2023/10/24 09:37:39;;;;;;;12.32;5.78;;;;;;;;;;10359824;28;19932;-72
2023/10/24 09:42:43;;;;;;;10.73;6.05;;;;;;;;;;10359832;28;20047;-68
2023/10/24 09:47:47;;;;;;;13.90;7.32;;;;;;;;;;10351534;28;20462;-68
2023/10/24 09:52:50;;;;;;;;;;;;;;;;;;10360904;28;20530;-68
2023/10/24 09:57:55;;;;;;;12.15;6.80;;;;;;;;;;10361294;28;19932;-68
2023/10/24 10:02:59;;;;;;;13.70;6.88;;;;;;;;;;10356263;28;20107;-68
2023/10/24 10:08:03;;;;;;;14.65;6.45;;;;;;;;;;10357770;28;20046;-68
2023/10/24 10:13:09;;;;;;;16.77;7.65;;;;;;;;;;10357455;28;20076;-69
2023/10/24 10:18:17;;;;;;;14.50;7.93;;;;;;;;;;10352086;28;20042;-69
2023/10/24 10:23:31;;;;;;;15.32;7.75;;;;;;;;;;10357044;28;20097;-70
2023/10/24 10:28:33;;;;;;;;;;;;;;;;;;10356990;28;20046;-69
2023/10/24 10:33:38;;;;;;;16.50;8.45;;;;;;;;;;10354699;28;20335;-69
2023/10/24 10:38:51;;;;;;;19.75;9.32;;;;;;;;;;10355412;28;20763;-69
2023/10/24 10:43:54;;;;;;;17.60;9.18;;;;;;;;;;10355637;28;20042;-71
2023/10/24 10:48:59;;;;;;;18.77;10.05;;;;;;;;;;10355886;28;20049;-69
2023/10/24 10:54:08;;;;;;;18.85;10.82;;;;;;;;;;10353153;28;20069;-69
2023/10/24 10:59:22;;;;;;;17.67;9.68;;;;;;;;;;10358618;28;20543;-68
2023/10/24 11:04:27;;;;;;;22.23;12.70;;;;;;;;;;10352272;28;20722;-67
2023/10/24 11:09:33;;;;;;;19.67;10.38;;;;;;;;;;10351235;28;20085;-69
2023/10/24 11:14:36;;;;;;;24.77;11.35;;;;;;;;;;10351505;28;20061;-69
2023/10/24 11:19:41;;;;;;;23.80;11.45;;;;;;;;;;10346391;28;21611;-68
2023/10/24 11:24:43;;;;;;;23.25;12.10;;;;;;;;;;10347772;28;20049;-69
2023/10/24 11:29:46;;;;;;;26.13;11.30;;;;;;;;;;10348769;28;20041;-68
2023/10/24 11:34:50;;;;;;;26.15;12.45;;;;;;;;;;10350961;28;20037;-68
2023/10/24 11:39:53;;;;;;;23.63;12.65;;;;;;;;;;10349224;28;20070;-69
2023/10/24 11:44:55;;;;;;;28.02;12.93;;;;;;;;;;10346449;28;20045;-71
2023/10/24 11:49:59;;;;;;;25.38;12.38;;;;;;;;;;10357818;28;20069;-75
2023/10/24 11:55:02;;;;;;;26.35;12.45;;;;;;;;;;10352484;28;20043;-68
2023/10/24 12:00:12;;;;;;;28.40;13.60;;;;;;;;;;10352530;28;20057;-68
2023/10/24 12:05:17;;;;;;;26.98;13.55;;;;;;;;;;10351792;28;20586;-68
2023/10/24 12:10:19;;;;;;;31.35;15.32;;;;;;;;;;10352252;28;20069;-70
2023/10/24 12:15:22;;;;;;;31.50;15.32;;;;;;;;;;10352650;28;20030;-69
2023/10/24 12:20:26;;;;;;;30.33;15.82;;;;;;;;;;10356758;28;20053;-70
2023/10/24 12:25:29;;;;;;;28.58;13.98;;;;;;;;;;10351346;28;20130;-68
2023/10/24 12:30:32;;;;;;;28.13;14.48;;;;;;;;;;10351489;28;20402;-70
2023/10/24 12:35:37;;;;;;;27.80;14.05;;;;;;;;;;10350415;28;20049;-71
2023/10/24 12:40:40;;;;;;;26.50;13.25;;;;;;;;;;10351575;28;20043;-68
2023/10/24 12:45:42;;;;;;;25.27;13.35;;;;;;;;;;10357933;28;20046;-68
2023/10/24 12:50:46;;;;;;;28.13;13.77;;;;;;;;;;10356144;28;20105;-69
2023/10/24 12:55:48;;;;;;;;;;;;;;;;;;10358899;28;20165;-69
2023/10/24 13:00:51;;;;;;;28.65;13.98;;;;;;;;;;10352479;28;20406;-71
2023/10/24 13:05:55;;;;;;;27.60;13.85;;;;;;;;;;10356313;28;20449;-69
2023/10/24 13:10:58;;;;;;;24.17;12.75;;;;;;;;;;10355119;28;20100;-68
2023/10/24 13:16:00;;;;;;;26.42;14.32;;;;;;;;;;10353471;28;20537;-69
2023/10/24 13:21:04;;;;;;;27.92;14.38;;;;;;;;;;10355674;28;20042;-69
2023/10/24 13:26:07;;;;;;;26.30;12.43;;;;;;;;;;10358785;28;20049;-70
2023/10/24 13:31:10;;;;;;;25.90;14.27;;;;;;;;;;10347297;28;20107;-70
2023/10/24 13:36:19;;;;;;;25.20;13.48;;;;;;;;;;10354288;28;20049;-70
2023/10/24 13:41:27;;;;;;;25.17;13.40;;;;;;;;;;10354816;28;20232;-69
2023/10/24 13:46:32;;;;;;;26.95;13.00;;;;;;;;;;10354932;28;20135;-69
2023/10/24 13:51:36;;;;;;;26.88;13.27;;;;;;;;;;10355637;28;20491;-70
2023/10/24 13:56:39;;;;;;;27.90;12.80;;;;;;;;;;10352110;28;20038;-69
2023/10/24 14:01:41;;;;;;;23.88;12.25;;;;;;;;;;10345648;28;20505;-69
2023/10/24 14:06:45;;;;;;;21.75;11.68;;;;;;;;;;10357976;28;20042;-68
2023/10/24 14:11:48;;;;;;;17.63;10.57;;;;;;;;;;10353616;28;20053;-70
2023/10/24 14:16:50;;;;;;;19.83;10.55;;;;;;;;;;10355152;28;20525;-70
2023/10/24 14:21:57;;;;;;;17.50;9.88;;;;;;;;;;10349110;28;20065;-69
2023/10/24 14:26:59;;;;;;;16.30;10.05;;;;;;;;;;10345494;28;20483;-68
2023/10/24 14:32:02;;;;;;;13.82;7.57;;;;;;;;;;10346580;28;20153;-69
2023/10/24 14:37:06;;;;;;;18.50;8.73;;;;;;;;;;10346072;28;20060;-70
2023/10/24 14:42:08;;;;;;;;;;;;;;;;;;10337797;28;20048;-70
2023/10/24 14:47:11;;;;;;;14.95;8.35;;;;;;;;;;10342163;28;19926;-72
2023/10/24 14:52:16;;;;;;;14.63;7.40;;;;;;;;;;10338437;28;20053;-68
2023/10/24 14:57:19;;;;;;;13.82;7.38;;;;;;;;;;10339694;28;20649;-69
2023/10/24 15:02:22;;;;;;;14.60;8.15;;;;;;;;;;10349879;28;20045;-69
2023/10/24 15:07:26;;;;;;;17.23;8.02;;;;;;;;;;10354306;28;20045;-69
2023/10/24 15:12:29;;;;;;;14.15;7.18;;;;;;;;;;10356551;28;20052;-68
2023/10/24 15:17:32;;;;;;;13.00;6.88;;;;;;;;;;10352758;28;20165;-69
2023/10/24 15:22:36;;;;;;;12.95;7.45;;;;;;;;;;10350143;28;20046;-69
2023/10/24 15:27:39;;;;;;;14.13;6.90;;;;;;;;;;10356898;28;20040;-69
2023/10/24 15:32:41;;;;;;;11.93;6.05;;;;;;;;;;10353883;28;20479;-71
2023/10/24 15:37:45;;;;;;;8.85;5.35;;;;;;;;;;10352588;28;20054;-68
2023/10/24 15:42:48;;;;;;;;;;;;;;;;;;10331618;28;20058;-69
2023/10/24 15:47:50;;;;;;;9.50;4.90;;;;;;;;;;10337494;28;19925;-68
2023/10/24 15:52:54;;;;;;;7.30;3.42;;;;;;;;;;10336919;28;20414;-69
2023/10/24 15:57:56;;;;;;;;;;;;;;;;;;10340638;28;20052;-69
2023/10/24 16:03:01;;;;;;;6.45;3.58;;;;;;;;;;10337802;28;19936;-69
2023/10/24 16:08:05;;;;;;;6.70;3.88;;;;;;;;;;10332929;28;20511;-68
2023/10/24 16:13:08;;;;;;;7.70;4.30;;;;;;;;;;10333082;28;20050;-68
2023/10/24 16:18:11;;;;;;;6.90;3.47;;;;;;;;;;10344457;28;20093;-70
2023/10/24 16:23:15;;;;;;;6.47;3.60;;;;;;;;;;10338073;28;21024;-70
2023/10/24 16:28:17;;;;;;;;;;;;;;;;;;10340109;28;20411;-69
2023/10/24 16:33:20;;;;;;;6.63;3.28;;;;;;;;;;10345053;28;19921;-70
2023/10/24 16:38:24;;;;;;;6.57;3.15;;;;;;;;;;10345174;28;20099;-69
2023/10/24 16:43:29;;;;;;;7.95;3.15;;;;;;;;;;10350280;28;20069;-70
2023/10/24 16:48:31;;;;;;;;;;;;;;;;;;10348304;28;20185;-69
2023/10/24 16:53:35;;;;;;;3.92;2.05;;;;;;;;;;10346951;28;19921;-69
2023/10/24 16:58:39;;;;;;;9.07;3.28;;;;;;;;;;10341847;28;20540;-69
2023/10/24 17:03:41;;;;;;;4.90;2.45;;;;;;;;;;10343478;28;20072;-68
2023/10/24 17:08:46;;;;;;;3.92;2.10;;;;;;;;;;10343863;28;20045;-68
2023/10/24 17:13:49;;;;;;;3.08;1.15;;;;;;;;;;10349290;28;20605;-69
2023/10/24 17:18:51;;;;;;;5.93;2.72;;;;;;;;;;10345773;28;20191;-69
2023/10/24 17:23:55;;;;;;;5.95;2.67;;;;;;;;;;10354307;28;20041;-68
2023/10/24 17:29:01;;;;;;;5.65;3.15;;;;;;;;;;10361962;28;20049;-69
2023/10/24 17:34:08;;;;;;;5.15;2.15;;;;;;;;;;10360432;28;20108;-69
2023/10/24 17:39:11;;;;;;;7.35;3.08;;;;;;;;;;10356122;28;20120;-68
2023/10/24 17:44:14;;;;;;;6.10;3.40;;;;;;;;;;10362419;28;20046;-69
2023/10/24 17:49:17;;;;;;;6.60;3.17;;;;;;;;;;10362819;28;20113;-68
2023/10/24 17:54:20;;;;;;;6.20;3.03;;;;;;;;;;10355402;28;20045;-70
2023/10/24 17:59:24;;;;;;;;;;;;;;;;;;10360090;28;20049;-70
2023/10/24 18:04:26;;;;;;;1.67;1.08;;;;;;;;;;10361043;28;19926;-70
2023/10/24 18:09:31;;;;;;;5.38;3.08;;;;;;;;;;10360585;28;20143;-68
2023/10/24 18:14:33;;;;;;;3.47;1.80;;;;;;;;;;10355677;28;20098;-67
2023/10/24 18:19:36;;;;;;;6.25;2.72;;;;;;;;;;10361883;28;20048;-71
2023/10/24 18:24:40;;;;;;;5.10;2.70;;;;;;;;;;10358069;28;20407;-69
2023/10/24 18:29:43;;;;;;;7.60;3.10;;;;;;;;;;10356904;28;20045;-69
2023/10/24 18:34:45;;;;;;;4.80;2.38;;;;;;;;;;10359979;28;20054;-69
2023/10/24 18:39:49;;;;;;;5.53;3.15;;;;;;;;;;10356543;28;20461;-70
2023/10/24 18:44:52;;;;;;;;;;;;;;;;;;10358337;28;20525;-69
2023/10/24 18:49:54;;;;;;;4.43;1.77;;;;;;;;;;10355752;28;20017;-69
2023/10/24 18:54:58;;;;;;;5.90;3.33;;;;;;;;;;10355800;28;20112;-70
2023/10/24 19:00:01;;;;;;;5.47;3.05;;;;;;;;;;10354199;28;20128;-69
2023/10/24 19:05:04;;;;;;;8.45;3.90;;;;;;;;;;10345625;28;20069;-72
2023/10/24 19:10:09;;;;;;;5.70;3.35;;;;;;;;;;10360143;28;20050;-69
2023/10/24 19:15:12;;;;;;;10.20;4.63;;;;;;;;;;10354841;28;20060;-69
2023/10/24 19:20:15;;;;;;;3.90;2.40;;;;;;;;;;10360003;28;20040;-69
2023/10/24 19:25:20;;;;;;;7.93;3.42;;;;;;;;;;10360720;28;20050;-69
2023/10/24 19:30:23;;;;;;;5.75;3.47;;;;;;;;;;10358875;28;20121;-68
2023/10/24 19:35:27;;;;;;;6.00;3.00;;;;;;;;;;10361246;28;20045;-70
2023/10/24 19:40:29;;;;;;;;;;;;;;;;;;10358483;28;20069;-69
2023/10/24 19:45:34;;;;;;;4.22;1.92;;;;;;;;;;10356909;28;20351;-67
2023/10/24 19:50:37;;;;;;;3.55;2.05;;;;;;;;;;10365359;28;20117;-69
2023/10/24 19:55:41;;;;;;;4.45;2.40;;;;;;;;;;10367438;28;20494;-68
2023/10/24 20:00:45;;;;;;;5.22;2.63;;;;;;;;;;10370325;28;20073;-68
2023/10/24 20:05:48;;;;;;;9.70;4.00;;;;;;;;;;10373103;28;20066;-70
2023/10/24 20:10:51;;;;;;;7.40;3.78;;;;;;;;;;10366834;28;20042;-69
2023/10/24 20:16:16;;;;;;;8.07;3.33;;;;;;;;;;10364143;28;20046;-68
2023/10/24 20:21:19;;;;;;;5.80;2.80;;;;;;;;;;10369171;28;20052;-70
2023/10/24 20:26:23;;;;;;;5.35;3.28;;;;;;;;;;10368436;28;20030;-69
2023/10/24 20:31:27;;;;;;;4.95;2.58;;;;;;;;;;10367949;28;20486;-70
2023/10/24 20:36:30;;;;;;;8.40;3.80;;;;;;;;;;10370570;28;20423;-69
2023/10/24 20:41:33;;;;;;;4.75;1.70;;;;;;;;;;10355673;28;20496;-72
2023/10/24 20:46:37;;;;;;;6.38;3.80;;;;;;;;;;10350101;28;20129;-70
2023/10/24 20:51:39;;;;;;;;;;;;;;;;;;10353896;28;20112;-69
2023/10/24 20:56:42;;;;;;;7.47;2.65;;;;;;;;;;10349505;28;19928;-70
2023/10/24 21:01:46;;;;;;;8.55;3.90;;;;;;;;;;10351616;28;20108;-70
2023/10/24 21:06:48;;;;;;;;;;;;;;;;;;10345796;28;20049;-69
2023/10/24 21:11:51;;;;;;;2.10;1.27;;;;;;;;;;10335297;28;19951;-70
2023/10/24 21:16:54;;;;;;;4.38;2.47;;;;;;;;;;10337109;28;20046;-69
2023/10/24 21:21:57;;;;;;;;;;;;;;;;;;10340802;28;20042;-69
2023/10/24 21:26:59;;;;;;;4.38;2.42;;;;;;;;;;10340847;28;19936;-68
2023/10/24 21:32:04;;;;;;;3.28;1.80;;;;;;;;;;10343752;28;20645;-69
2023/10/24 21:37:06;;;;;;;3.03;1.65;;;;;;;;;;10341458;28;20121;-70
2023/10/24 21:42:09;;;;;;;5.53;2.88;;;;;;;;;;10342925;28;20044;-69
2023/10/24 21:47:13;;;;;;;1.92;1.42;;;;;;;;;;10336186;28;20046;-69
2023/10/24 21:52:16;;;;;;;3.55;2.22;;;;;;;;;;10340007;28;21404;-69
2023/10/24 21:57:19;;;;;;;3.75;2.33;;;;;;;;;;10339586;28;20148;-68
2023/10/24 22:02:23;;;;;;;3.25;1.80;;;;;;;;;;10339010;28;20160;-69
2023/10/24 22:07:26;;;;;;;2.95;1.10;;;;;;;;;;10338450;28;20104;-68
2023/10/24 22:12:29;;;;;;;3.42;1.70;;;;;;;;;;10340140;28;20115;-69
2023/10/24 22:17:34;;;;;;;2.85;1.25;;;;;;;;;;10339031;28;20049;-69
2023/10/24 22:22:37;;;;;;;0.98;0.75;;;;;;;;;;10347094;28;20143;-69
2023/10/24 22:27:40;;;;;;;0.35;0.35;;;;;;;;;;10338996;28;20133;-69
2023/10/24 22:32:57;;;;;;;0.75;0.75;;;;;;;;;;10337614;28;20050;-71
2023/10/24 22:37:59;;;;;;;;;;;;;;;;;;10342190;28;20104;-70
2023/10/24 22:43:02;;;;;;;1.08;0.70;;;;;;;;;;10344140;28;19925;-69
2023/10/24 22:48:06;;;;;;;1.00;0.88;;;;;;;;;;10334537;28;20042;-69
2023/10/24 22:53:09;;;;;;;5.82;1.38;;;;;;;;;;10341904;28;20049;-69
2023/10/24 22:58:11;;;;;;;1.90;0.68;;;;;;;;;;10335727;28;20056;-69
2023/10/24 23:03:15;;;;;;;0.93;0.85;;;;;;;;;;10341996;28;20435;-69
2023/10/24 23:08:18;;;;;;;;;;;;;;;;;;10344196;28;20513;-69
2023/10/24 23:13:20;;;;;;;2.60;1.02;;;;;;;;;;10344147;28;20051;-70
2023/10/24 23:18:24;;;;;;;1.88;1.27;;;;;;;;;;10341914;28;20758;-70
2023/10/24 23:23:27;;;;;;;2.00;1.23;;;;;;;;;;10343782;28;20104;-68
2023/10/24 23:28:30;;;;;;;1.30;1.20;;;;;;;;;;10340769;28;20065;-68
2023/10/24 23:33:34;;;;;;;2.45;1.27;;;;;;;;;;10337898;28;20450;-68
2023/10/24 23:38:36;;;;;;;;;;;;;;;;;;10338050;28;20069;-69
2023/10/24 23:43:39;;;;;;;2.20;1.60;;;;;;;;;;10349768;28;20020;-69
2023/10/24 23:48:43;;;;;;;3.67;2.13;;;;;;;;;;10341071;28;20387;-70
2023/10/24 23:53:45;;;;;;;;;;;;;;;;;;10341817;28;20100;-69
2023/10/24 23:58:48;;;;;;;3.38;1.88;;;;;;;;;;10335466;28;20470;-69
